createdAt,value
2018-04-26T00:01:42.862Z,19.22
2018-04-26T00:04:09.885Z,19.15
2018-04-26T00:06:38.642Z,19.20
2018-04-26T00:09:06.003Z,19.21
2018-04-26T00:11:33.360Z,19.13
2018-04-26T00:14:00.084Z,19.07
2018-04-26T00:16:27.768Z,19.07
2018-04-26T00:18:54.945Z,19.07
2018-04-26T00:21:21.910Z,19.02
2018-04-26T00:23:49.307Z,18.96
2018-04-26T00:26:18.351Z,18.96
2018-04-26T00:28:45.140Z,18.98
2018-04-26T00:31:12.269Z,19.01
2018-04-26T00:33:39.554Z,19.01
2018-04-26T00:36:08.793Z,18.95
2018-04-26T00:38:35.956Z,18.90
2018-04-26T00:41:03.574Z,18.91
2018-04-26T00:43:31.254Z,18.95
2018-04-26T00:45:59.324Z,18.90
2018-04-26T00:48:27.334Z,18.83
2018-04-26T00:50:54.584Z,18.80
2018-04-26T00:53:22.065Z,18.71
2018-04-26T00:55:51.215Z,18.75
2018-04-26T00:58:18.421Z,18.66
2018-04-26T01:00:45.533Z,18.66
2018-04-26T01:03:14.065Z,18.62
2018-04-26T01:05:41.048Z,18.56
2018-04-26T01:08:09.023Z,18.59
2018-04-26T01:10:36.884Z,18.63
2018-04-26T01:13:04.086Z,18.58
2018-04-26T01:15:32.349Z,18.58
2018-04-26T01:18:01.049Z,18.57
2018-04-26T01:20:28.403Z,18.50
2018-04-26T01:22:54.917Z,18.49
2018-04-26T01:25:21.613Z,18.41
2018-04-26T01:27:48.574Z,18.42
2018-04-26T01:30:15.158Z,18.47
2018-04-26T01:32:43.551Z,18.51
2018-04-26T01:35:11.030Z,18.55
2018-04-26T01:37:44.140Z,18.48
2018-04-26T01:40:11.052Z,18.41
2018-04-26T01:42:38.750Z,18.44
2018-04-26T01:45:06.492Z,18.52
2018-04-26T01:47:34.468Z,18.49
2018-04-26T01:50:02.065Z,18.39
2018-04-26T01:52:30.197Z,18.36
2018-04-26T01:54:57.447Z,18.27
2018-04-26T01:57:25.052Z,18.22
2018-04-26T01:59:52.793Z,18.21
2018-04-26T02:02:20.995Z,18.10
2018-04-26T02:04:48.556Z,18.13
2018-04-26T02:07:15.411Z,18.17
2018-04-26T02:09:42.944Z,18.20
2018-04-26T02:12:11.894Z,18.20
2018-04-26T02:14:38.585Z,18.21
2018-04-26T02:17:06.429Z,18.19
2018-04-26T02:19:33.643Z,18.15
2018-04-26T02:22:01.087Z,18.12
2018-04-26T02:24:29.715Z,18.06
2018-04-26T02:26:56.696Z,18.10
2018-04-26T02:29:23.729Z,18.03
2018-04-26T02:31:50.771Z,18.01
2018-04-26T02:34:18.856Z,17.95
2018-04-26T02:36:45.800Z,17.91
2018-04-26T02:39:12.626Z,17.92
2018-04-26T02:41:39.399Z,17.87
2018-04-26T02:44:06.057Z,17.81
2018-04-26T02:46:33.537Z,17.82
2018-04-26T02:49:00.438Z,17.82
2018-04-26T02:51:28.045Z,17.79
2018-04-26T02:53:55.577Z,17.78
2018-04-26T02:56:22.512Z,17.73
2018-04-26T02:58:49.775Z,17.74
2018-04-26T03:01:17.625Z,17.75
2018-04-26T03:03:44.756Z,17.72
2018-04-26T03:06:14.007Z,17.68
2018-04-26T03:08:41.193Z,17.73
2018-04-26T03:11:08.877Z,17.70
2018-04-26T03:13:35.459Z,17.67
2018-04-26T03:16:03.595Z,17.62
2018-04-26T03:18:31.107Z,17.55
2018-04-26T03:20:59.550Z,17.59
2018-04-26T03:23:26.777Z,17.53
2018-04-26T03:25:53.717Z,17.57
2018-04-26T03:28:20.529Z,17.55
2018-04-26T03:30:47.684Z,17.58
2018-04-26T03:33:15.952Z,17.58
2018-04-26T03:35:43.278Z,17.54
2018-04-26T03:38:11.083Z,17.55
2018-04-26T03:40:38.681Z,17.51
2018-04-26T03:43:07.181Z,17.45
2018-04-26T03:45:34.024Z,17.36
2018-04-26T03:48:01.597Z,17.39
2018-04-26T03:50:28.478Z,17.35
2018-04-26T03:52:55.562Z,17.40
2018-04-26T03:55:22.899Z,17.37
2018-04-26T03:57:50.617Z,17.39
2018-04-26T04:00:29.439Z,17.45
2018-04-26T04:03:08.087Z,17.48
2018-04-26T04:05:47.309Z,17.42
2018-04-26T04:08:14.247Z,17.48
2018-04-26T04:10:41.476Z,17.47
2018-04-26T04:13:08.235Z,17.49
2018-04-26T04:15:35.288Z,17.57
2018-04-26T04:18:03.766Z,17.52
2018-04-26T04:20:31.066Z,17.57
2018-04-26T04:22:58.213Z,17.56
2018-04-26T04:25:26.000Z,17.63
2018-04-26T04:27:52.971Z,17.60
2018-04-26T04:30:19.899Z,17.71
2018-04-26T04:32:46.478Z,17.80
2018-04-26T04:35:14.326Z,17.92
2018-04-26T04:37:41.968Z,18.01
2018-04-26T04:40:10.221Z,18.01
2018-04-26T04:42:38.244Z,18.03
2018-04-26T04:45:05.495Z,18.06
2018-04-26T04:47:32.728Z,18.15
2018-04-26T04:50:00.077Z,18.19
2018-04-26T04:52:27.833Z,18.20
2018-04-26T04:54:55.034Z,18.25
2018-04-26T04:57:22.451Z,18.31
2018-04-26T04:59:49.466Z,18.40
2018-04-26T05:02:16.318Z,18.35
2018-04-26T05:04:44.666Z,18.31
2018-04-26T05:09:52.790Z,18.50
2018-04-26T05:12:21.015Z,18.57
2018-04-26T05:14:47.757Z,18.64
2018-04-26T05:17:15.256Z,18.62
2018-04-26T05:19:42.999Z,18.72
2018-04-26T05:22:09.813Z,18.76
2018-04-26T05:24:36.844Z,18.86
2018-04-26T05:27:03.691Z,18.99
2018-04-26T05:29:30.879Z,19.12
2018-04-26T05:31:58.143Z,19.23
2018-04-26T05:34:25.717Z,19.30
2018-04-26T05:36:52.660Z,19.42
2018-04-26T05:39:20.478Z,19.55
2018-04-26T05:41:47.275Z,19.63
2018-04-26T05:44:14.818Z,19.79
2018-04-26T05:46:42.187Z,19.87
2018-04-26T05:49:09.269Z,19.99
2018-04-26T05:51:36.284Z,20.09
2018-04-26T05:54:03.681Z,20.20
2018-04-26T05:56:31.079Z,20.30
2018-04-26T05:58:58.751Z,20.41
2018-04-26T06:01:26.152Z,20.51
2018-04-26T06:03:53.502Z,20.51
2018-04-26T06:06:20.911Z,20.47
2018-04-26T06:08:47.503Z,20.58
2018-04-26T06:11:14.453Z,20.65
2018-04-26T06:13:41.824Z,20.60
2018-04-26T06:16:08.848Z,20.58
2018-04-26T06:18:37.227Z,20.69
2018-04-26T06:21:04.671Z,20.74
2018-04-26T06:23:31.507Z,20.69
2018-04-26T06:25:58.453Z,20.73
2018-04-26T06:28:25.309Z,20.80
2018-04-26T06:30:52.429Z,20.89
2018-04-26T06:33:19.426Z,20.98
2018-04-26T06:35:46.898Z,21.07
2018-04-26T06:38:14.264Z,21.14
2018-04-26T06:40:40.981Z,21.07
2018-04-26T06:43:08.051Z,21.11
2018-04-26T06:45:35.176Z,20.85
2018-04-26T06:48:02.295Z,20.97
2018-04-26T06:50:29.443Z,21.18
2018-04-26T06:52:56.135Z,21.12
2018-04-26T06:55:23.106Z,21.09
2018-04-26T06:57:50.211Z,21.29
2018-04-26T07:00:17.253Z,21.41
2018-04-26T07:02:44.884Z,21.28
2018-04-26T07:05:13.103Z,21.44
2018-04-26T07:07:40.464Z,21.50
2018-04-26T07:10:07.244Z,21.53
2018-04-26T07:12:34.488Z,21.61
2018-04-26T07:15:01.275Z,21.67
2018-04-26T07:17:29.999Z,21.75
2018-04-26T07:19:57.227Z,21.80
2018-04-26T07:22:24.312Z,21.89
2018-04-26T07:24:50.819Z,21.89
2018-04-26T07:27:18.118Z,21.87
2018-04-26T07:29:44.943Z,21.78
2018-04-26T07:32:12.382Z,21.65
2018-04-26T07:34:39.179Z,21.78
2018-04-26T07:37:06.813Z,21.81
2018-04-26T07:39:35.751Z,21.95
2018-04-26T07:42:02.459Z,21.96
2018-04-26T07:44:29.405Z,22.01
2018-04-26T07:46:56.496Z,22.14
2018-04-26T07:49:23.281Z,22.28
2018-04-26T07:51:50.404Z,22.38
2018-04-26T07:54:17.172Z,22.32
2018-04-26T07:56:44.196Z,22.39
2018-04-26T07:59:11.302Z,22.42
2018-04-26T08:01:39.440Z,22.45
2018-04-26T08:04:06.330Z,22.37
2018-04-26T08:06:33.501Z,22.34
2018-04-26T08:09:00.645Z,22.25
2018-04-26T08:11:27.758Z,22.37
2018-04-26T08:13:54.675Z,22.49
2018-04-26T08:16:21.801Z,22.53
2018-04-26T08:18:49.653Z,22.50
2018-04-26T08:23:51.476Z,22.49
2018-04-26T08:26:18.724Z,22.30
2018-04-26T08:28:45.251Z,22.44
2018-04-26T08:31:13.040Z,22.48
2018-04-26T08:33:40.542Z,22.68
2018-04-26T08:36:07.420Z,22.62
2018-04-26T08:38:34.887Z,22.76
2018-04-26T08:41:02.336Z,22.84
2018-04-26T08:43:29.691Z,22.93
2018-04-26T08:45:56.867Z,23.14
2018-04-26T08:48:23.820Z,23.23
2018-04-26T08:50:50.671Z,23.30
2018-04-26T08:53:18.833Z,23.37
2018-04-26T08:55:45.748Z,23.49
2018-04-26T08:58:12.758Z,23.54
2018-04-26T09:00:39.737Z,23.52
2018-04-26T09:03:07.066Z,23.60
2018-04-26T09:05:34.142Z,23.61
2018-04-26T09:08:02.485Z,23.66
2018-04-26T09:10:29.785Z,23.72
2018-04-26T09:12:57.809Z,23.77
2018-04-26T09:15:24.311Z,23.94
2018-04-26T09:17:52.068Z,24.02
2018-04-26T09:20:19.098Z,23.91
2018-04-26T09:22:47.064Z,23.93
2018-04-26T09:25:13.993Z,23.90
2018-04-26T09:27:40.858Z,23.99
2018-04-26T09:30:14.676Z,23.94
2018-04-26T09:32:41.738Z,24.00
2018-04-26T09:35:09.445Z,23.94
2018-04-26T09:37:36.785Z,24.05
2018-04-26T09:40:03.680Z,24.24
2018-04-26T09:42:38.081Z,24.40
2018-04-26T09:45:05.230Z,24.30
2018-04-26T09:47:32.465Z,24.38
2018-04-26T09:49:59.365Z,24.46
2018-04-26T09:52:25.920Z,24.59
2018-04-26T09:54:52.724Z,24.62
2018-04-26T09:57:20.287Z,24.69
2018-04-26T09:59:47.665Z,24.59
2018-04-26T10:02:15.721Z,24.65
2018-04-26T10:04:49.721Z,24.71
2018-04-26T10:07:16.786Z,24.73
2018-04-26T10:09:44.734Z,24.75
2018-04-26T10:12:12.891Z,24.84
2018-04-26T10:14:40.468Z,24.93
2018-04-26T10:17:07.498Z,24.99
2018-04-26T10:19:34.756Z,24.95
2018-04-26T10:22:02.653Z,24.92
2018-04-26T10:24:29.774Z,24.90
2018-04-26T10:26:58.010Z,25.03
2018-04-26T10:29:25.185Z,25.06
2018-04-26T10:31:51.840Z,25.16
2018-04-26T10:34:18.695Z,25.09
2018-04-26T10:36:46.184Z,25.01
2018-04-26T10:39:13.051Z,24.97
2018-04-26T10:41:40.273Z,24.91
2018-04-26T10:44:07.247Z,24.89
2018-04-26T10:46:35.042Z,24.97
2018-04-26T10:49:01.882Z,24.93
2018-04-26T10:51:28.875Z,24.92
2018-04-26T10:53:57.700Z,25.02
2018-04-26T10:56:24.923Z,25.11
2018-04-26T10:58:52.758Z,25.05
2018-04-26T11:01:19.640Z,25.05
2018-04-26T11:03:46.789Z,25.07
2018-04-26T11:06:15.471Z,25.24
2018-04-26T11:08:43.244Z,25.23
2018-04-26T11:11:10.030Z,25.28
2018-04-26T11:13:37.661Z,25.33
2018-04-26T11:16:04.688Z,25.46
2018-04-26T11:18:32.450Z,25.54
2018-04-26T11:20:59.898Z,25.63
2018-04-26T11:23:28.098Z,25.52
2018-04-26T11:25:55.236Z,25.48
2018-04-26T11:28:22.534Z,25.51
2018-04-26T11:30:49.499Z,25.51
2018-04-26T11:33:16.910Z,25.51
2018-04-26T11:35:43.869Z,25.59
2018-04-26T11:38:10.829Z,25.58
2018-04-26T11:40:38.054Z,25.54
2018-04-26T11:43:04.724Z,25.64
2018-04-26T11:45:32.039Z,25.67
2018-04-26T11:47:58.863Z,25.63
2018-04-26T11:50:25.780Z,25.72
2018-04-26T11:52:53.060Z,25.86
2018-04-26T11:55:20.476Z,25.84
2018-04-26T11:57:47.276Z,25.83
2018-04-26T12:00:14.520Z,25.87
2018-04-26T12:02:41.478Z,25.86
2018-04-26T12:05:08.297Z,25.90
2018-04-26T12:07:35.207Z,26.09
2018-04-26T12:10:02.953Z,26.18
2018-04-26T12:12:29.796Z,26.20
2018-04-26T12:14:57.433Z,26.24
2018-04-26T12:17:24.673Z,26.37
2018-04-26T12:19:51.558Z,26.35
2018-04-26T12:22:18.656Z,26.37
2018-04-26T12:24:45.325Z,26.41
2018-04-26T12:27:12.458Z,26.33
2018-04-26T12:29:39.877Z,26.33
2018-04-26T12:32:07.064Z,26.35
2018-04-26T12:34:34.651Z,26.36
2018-04-26T12:37:01.720Z,26.30
2018-04-26T12:39:29.244Z,26.25
2018-04-26T12:41:56.128Z,26.30
2018-04-26T12:44:23.424Z,26.23
2018-04-26T12:46:51.076Z,26.24
2018-04-26T12:49:17.862Z,26.41
2018-04-26T12:51:46.095Z,26.40
2018-04-26T12:54:13.040Z,26.34
2018-04-26T12:56:40.343Z,26.39
2018-04-26T12:59:07.397Z,26.42
2018-04-26T13:01:35.101Z,26.43
2018-04-26T13:04:02.092Z,26.33
2018-04-26T13:06:29.116Z,26.30
2018-04-26T13:08:56.386Z,26.37
2018-04-26T13:11:24.290Z,26.37
2018-04-26T13:13:51.030Z,26.19
2018-04-26T13:16:18.359Z,26.25
2018-04-26T13:18:45.114Z,26.09
2018-04-26T13:21:13.735Z,26.10
2018-04-26T13:23:41.816Z,26.17
2018-04-26T13:26:09.709Z,26.12
2018-04-26T13:28:38.512Z,26.11
2018-04-26T13:31:05.597Z,26.13
2018-04-26T13:33:32.508Z,26.17
2018-04-26T13:35:58.997Z,26.13
2018-04-26T13:38:26.901Z,26.11
2018-04-26T13:40:55.201Z,26.10
2018-04-26T13:43:22.060Z,26.10
2018-04-26T13:45:49.857Z,26.23
2018-04-26T13:48:16.778Z,26.35
2018-04-26T13:50:44.835Z,26.38
2018-04-26T13:53:11.394Z,26.46
2018-04-26T13:55:39.367Z,26.50
2018-04-26T13:58:07.023Z,26.56
2018-04-26T14:00:34.802Z,26.59
2018-04-26T14:03:02.244Z,26.71
2018-04-26T14:05:29.101Z,26.66
2018-04-26T14:07:56.043Z,26.61
2018-04-26T14:10:24.109Z,26.67
2018-04-26T14:12:51.951Z,26.68
2018-04-26T14:15:20.280Z,26.73
2018-04-26T14:17:47.463Z,26.80
2018-04-26T14:20:14.260Z,26.83
2018-04-26T14:22:41.720Z,26.86
2018-04-26T14:25:08.922Z,26.96
2018-04-26T14:27:36.297Z,26.96
2018-04-26T14:30:03.760Z,26.99
2018-04-26T14:32:30.517Z,27.00
2018-04-26T14:34:57.712Z,27.03
2018-04-26T14:37:24.729Z,26.92
2018-04-26T14:39:51.820Z,26.78
2018-04-26T14:42:18.764Z,26.56
2018-04-26T14:44:45.850Z,26.46
2018-04-26T14:47:12.742Z,26.36
2018-04-26T14:49:40.889Z,26.26
2018-04-26T14:52:08.349Z,26.16
2018-04-26T14:54:35.136Z,26.00
2018-04-26T14:57:01.951Z,25.93
2018-04-26T14:59:29.548Z,25.91
2018-04-26T15:01:56.041Z,25.97
2018-04-26T15:04:23.177Z,26.07
2018-04-26T15:06:50.973Z,26.18
2018-04-26T15:09:17.643Z,26.18
2018-04-26T15:11:45.711Z,26.19
2018-04-26T15:14:14.124Z,26.16
2018-04-26T15:16:42.144Z,26.19
2018-04-26T15:19:09.626Z,26.22
2018-04-26T15:21:36.679Z,26.25
2018-04-26T15:24:03.833Z,26.21
2018-04-26T15:26:30.908Z,26.24
2018-04-26T15:28:58.458Z,26.20
2018-04-26T15:31:25.687Z,26.19
2018-04-26T15:33:52.534Z,26.24
2018-04-26T15:36:19.740Z,26.17
2018-04-26T15:38:46.982Z,26.20
2018-04-26T15:41:14.850Z,26.12
2018-04-26T15:43:42.944Z,26.03
2018-04-26T15:46:10.552Z,26.03
2018-04-26T15:48:37.673Z,26.05
2018-04-26T15:51:04.312Z,26.07
2018-04-26T15:53:43.456Z,26.02
2018-04-26T15:56:36.157Z,26.01
2018-04-26T15:59:15.842Z,26.11
2018-04-26T16:02:19.510Z,26.14
2018-04-26T16:04:58.436Z,25.92
2018-04-26T16:07:54.220Z,25.92
2018-04-26T16:10:40.003Z,25.90
2018-04-26T16:16:42.128Z,25.80
2018-04-26T16:19:34.116Z,25.82
2018-04-26T16:25:19.097Z,25.69
2018-04-26T16:27:58.273Z,25.66
2018-04-26T16:30:38.633Z,25.54
2018-04-26T16:33:17.319Z,25.66
2018-04-26T16:39:07.929Z,25.70
2018-04-26T16:41:34.693Z,25.56
2018-04-26T16:44:01.293Z,25.58
2018-04-26T16:46:28.083Z,25.53
2018-04-26T16:48:55.161Z,25.53
2018-04-26T16:51:22.286Z,25.50
2018-04-26T16:53:48.946Z,25.41
2018-04-26T16:56:17.604Z,25.36
2018-04-26T16:58:44.714Z,25.33
2018-04-26T17:01:11.575Z,25.33
2018-04-26T17:03:40.337Z,25.27
2018-04-26T17:06:08.804Z,25.26
2018-04-26T17:08:36.263Z,25.23
2018-04-26T17:11:03.410Z,25.19
2018-04-26T17:13:31.603Z,25.21
2018-04-26T17:15:58.883Z,25.17
2018-04-26T17:18:25.756Z,25.16
2018-04-26T17:20:54.502Z,25.13
2018-04-26T17:23:22.137Z,25.07
2018-04-26T17:25:50.282Z,25.02
2018-04-26T17:28:17.996Z,24.95
2018-04-26T17:30:46.162Z,24.87
2018-04-26T17:33:13.978Z,24.81
2018-04-26T17:35:41.733Z,24.75
2018-04-26T17:38:08.702Z,24.69
2018-04-26T17:40:36.718Z,24.64
2018-04-26T17:43:05.197Z,24.56
2018-04-26T17:45:33.905Z,24.50
2018-04-26T17:48:00.904Z,24.46
2018-04-26T17:50:28.301Z,24.40
2018-04-26T17:52:55.453Z,24.36
2018-04-26T17:55:22.672Z,24.30
2018-04-26T17:57:50.541Z,24.40
2018-04-26T18:00:17.513Z,24.24
2018-04-26T18:02:44.524Z,24.19
2018-04-26T18:05:12.314Z,24.23
2018-04-26T18:10:19.921Z,24.08
2018-04-26T18:12:48.590Z,24.04
2018-04-26T18:15:15.991Z,24.06
2018-04-26T18:24:05.184Z,23.81
2018-04-26T18:26:32.315Z,23.88
2018-04-26T18:28:59.675Z,23.85
2018-04-26T18:31:26.929Z,23.79
2018-04-26T18:33:54.764Z,23.67
2018-04-26T18:36:22.218Z,23.63
2018-04-26T18:38:48.867Z,23.60
2018-04-26T18:41:17.522Z,23.57
2018-04-26T18:43:45.189Z,23.70
2018-04-26T18:46:12.191Z,23.64
2018-04-26T18:48:39.566Z,23.60
2018-04-26T18:51:07.538Z,23.59
2018-04-26T18:53:38.166Z,23.56
2018-04-26T18:56:05.958Z,23.55
2018-04-26T18:58:33.181Z,23.49
2018-04-26T19:01:01.946Z,23.42
2018-04-26T19:03:29.684Z,23.52
2018-04-26T19:05:56.728Z,23.58
2018-04-26T19:08:24.591Z,23.46
2018-04-26T19:10:53.458Z,23.41
2018-04-26T19:13:21.622Z,23.48
2018-04-26T19:15:49.063Z,23.36
2018-04-26T19:18:16.122Z,23.39
2018-04-26T19:20:43.164Z,23.27
2018-04-26T19:23:11.137Z,23.35
2018-04-26T19:25:38.593Z,23.36
2018-04-26T19:28:06.566Z,23.38
2018-04-26T19:30:47.087Z,23.37
2018-04-26T19:35:48.816Z,23.23
2018-04-26T19:38:16.286Z,23.29
2018-04-26T19:40:43.363Z,23.26
2018-04-26T19:43:10.232Z,23.31
2018-04-26T19:45:38.073Z,23.38
2018-04-26T19:48:05.419Z,23.28
2018-04-26T19:50:32.528Z,23.22
2018-04-26T19:53:01.577Z,23.20
2018-04-26T19:55:30.122Z,23.13
2018-04-26T19:57:58.727Z,23.00
2018-04-26T20:00:26.900Z,22.96
2018-04-26T20:02:53.765Z,23.14
2018-04-26T20:05:22.129Z,22.95
2018-04-26T20:07:48.975Z,22.88
2018-04-26T20:10:16.225Z,22.82
2018-04-26T20:12:43.313Z,22.83
2018-04-26T20:15:10.810Z,22.83
2018-04-26T20:17:37.853Z,22.81
2018-04-26T20:20:04.961Z,22.83
2018-04-26T20:22:33.359Z,22.87
2018-04-26T20:25:01.111Z,22.79
2018-04-26T20:27:30.236Z,22.78
2018-04-26T20:29:58.060Z,22.74
2018-04-26T20:32:26.585Z,22.65
2018-04-26T20:34:53.871Z,22.62
2018-04-26T20:37:21.520Z,22.45
2018-04-26T20:39:50.147Z,22.34
2018-04-26T20:42:18.410Z,22.38
2018-04-26T20:44:48.925Z,22.39
2018-04-26T20:47:17.082Z,22.33
2018-04-26T20:49:44.685Z,22.25
2018-04-26T20:52:12.447Z,22.21
2018-04-26T20:54:39.755Z,22.20
2018-04-26T20:57:07.981Z,22.13
2018-04-26T20:59:35.159Z,22.08
2018-04-26T21:02:02.382Z,21.99
2018-04-26T21:04:29.899Z,21.95
2018-04-26T21:06:57.548Z,21.87
2018-04-26T21:09:25.110Z,21.89
2018-04-26T21:11:52.598Z,21.84
2018-04-26T21:14:19.744Z,21.73
2018-04-26T21:16:47.430Z,21.64
2018-04-26T21:19:15.058Z,21.63
2018-04-26T21:21:43.014Z,21.55
2018-04-26T21:24:11.661Z,21.52
2018-04-26T21:26:38.881Z,21.61
2018-04-26T21:29:06.706Z,21.62
2018-04-26T21:31:34.521Z,21.56
2018-04-26T21:34:03.630Z,21.52
2018-04-26T21:36:31.872Z,21.52
2018-04-26T21:38:58.829Z,21.55
2018-04-26T21:41:25.785Z,21.54
2018-04-26T21:43:53.240Z,21.34
2018-04-26T21:46:20.548Z,21.42
2018-04-26T21:48:48.536Z,21.44
2018-04-26T21:51:21.967Z,21.42
2018-04-26T21:53:55.862Z,21.49
2018-04-26T21:56:29.814Z,21.46
2018-04-26T21:59:04.343Z,21.43
2018-04-26T22:01:37.746Z,21.43
2018-04-26T22:07:08.111Z,21.33
2018-04-26T22:09:37.302Z,21.35
2018-04-26T22:12:04.714Z,21.42
2018-04-26T22:14:32.110Z,21.42
2018-04-26T22:16:59.365Z,21.45
2018-04-26T22:19:27.113Z,21.38
2018-04-26T22:21:55.005Z,21.35
2018-04-26T22:24:23.161Z,21.27
2018-04-26T22:26:50.168Z,21.20
2018-04-26T22:29:17.845Z,21.14
2018-04-26T22:31:45.961Z,21.15
2018-04-26T22:34:13.227Z,21.16
2018-04-26T22:36:41.025Z,21.08
2018-04-26T22:39:10.488Z,21.12
2018-04-26T22:41:37.988Z,21.13
2018-04-26T22:44:05.097Z,21.17
2018-04-26T22:46:32.429Z,21.15
2018-04-26T22:48:59.549Z,21.07
2018-04-26T22:51:28.837Z,21.05
2018-04-26T22:53:57.057Z,20.97
2018-04-26T22:56:23.995Z,20.88
2018-04-26T22:58:51.186Z,20.88
2018-04-26T23:01:18.671Z,20.85
2018-04-26T23:03:45.689Z,20.77
2018-04-26T23:06:13.302Z,20.72
2018-04-26T23:08:40.613Z,20.69
2018-04-26T23:11:07.734Z,20.63
2018-04-26T23:13:35.256Z,20.55
2018-04-26T23:16:03.025Z,20.51
2018-04-26T23:18:31.918Z,20.45
2018-04-26T23:21:00.263Z,20.34
2018-04-26T23:23:27.435Z,20.30
2018-04-26T23:25:56.102Z,20.29
2018-04-26T23:28:27.702Z,20.26
2018-04-26T23:30:55.246Z,20.22
2018-04-26T23:33:23.148Z,20.23
2018-04-26T23:35:50.105Z,20.24
2018-04-26T23:38:17.612Z,20.22
2018-04-26T23:40:44.809Z,20.22
2018-04-26T23:43:11.833Z,20.18
2018-04-26T23:45:39.024Z,20.22
2018-04-26T23:48:06.035Z,20.23
2018-04-26T23:50:34.283Z,20.22
2018-04-26T23:53:01.310Z,20.23
2018-04-26T23:55:32.078Z,20.22
2018-04-26T23:57:59.540Z,20.21
